Time;durP1;ratioP1;P1;durP2;ratioP2;P2;SDS_P1;SDS_P2;PMS_P1;PMS_P2;Temp;Humidity;BMP_temperature;BMP_pressure;BME280_temperature;BME280_humidity;BME280_pressure;Samples;Min_cycle;Max_cycle;Signal;HPM_P1;HPM_P2
2022/05/07 00:02:08;;;;;;;13.77;8.23;;;24.40;54.60;;;;;;6281764;27;80402;-61
2022/05/07 00:05:08;;;;;;;11.88;9.00;;;24.40;54.70;;;;;;6281527;27;81066;-61
2022/05/07 00:08:09;;;;;;;14.02;8.90;;;24.30;54.60;;;;;;6276541;27;80071;-61
2022/05/07 00:11:09;;;;;;;11.43;7.93;;;24.30;54.70;;;;;;6279338;27;80495;-61
2022/05/07 00:14:10;;;;;;;11.05;8.00;;;24.30;54.60;;;;;;6276402;27;82568;-62
2022/05/07 00:18:12;;;;;;;12.45;8.43;;;24.30;54.70;;;;;;6281762;27;81056;-62
2022/05/07 00:20:40;;;;;;;11.93;8.57;;;24.30;54.60;;;;;;6273792;27;80992;-62
2022/05/07 00:23:40;;;;;;;13.80;9.18;;;24.30;54.60;;;;;;6278929;27;81393;-62
2022/05/07 00:26:41;;;;;;;11.95;8.57;;;24.30;54.60;;;;;;6283122;27;80821;-61
2022/05/07 00:29:41;;;;;;;12.35;8.70;;;24.30;54.60;;;;;;6282953;27;80680;-61
2022/05/07 00:32:43;;;;;;;13.70;9.25;;;24.30;54.60;;;;;;6281143;27;82732;-62
2022/05/07 00:35:44;;;;;;;15.25;9.23;;;24.30;54.50;;;;;;6274760;27;80246;-61
2022/05/07 00:38:44;;;;;;;18.20;9.35;;;24.30;54.50;;;;;;6275058;27;80340;-64
2022/05/07 00:41:45;;;;;;;14.40;9.23;;;24.30;54.50;;;;;;6287177;27;80370;-61
2022/05/07 00:44:46;;;;;;;15.38;9.30;;;24.30;54.40;;;;;;6287238;27;80647;-61
2022/05/07 00:47:46;;;;;;;15.55;10.10;;;24.30;54.40;;;;;;6285576;27;83335;-61
2022/05/07 00:54:07;;;;;;;13.95;8.95;;;24.30;54.40;;;;;;6284480;27;86138;-61
2022/05/07 00:57:08;;;;;;;12.68;9.38;;;24.30;54.50;;;;;;6285204;27;81430;-61
2022/05/07 01:00:09;;;;;;;14.43;9.88;;;24.30;54.40;;;;;;6286643;27;80157;-61
2022/05/07 01:03:10;;;;;;;14.57;9.38;;;24.30;54.60;;;;;;6283710;27;80698;-61
2022/05/07 01:06:11;;;;;;;14.43;9.23;;;24.30;54.50;;;;;;6266834;27;83066;-60
2022/05/07 01:09:12;;;;;;;13.73;9.85;;;24.30;54.50;;;;;;6284222;27;83170;-60
2022/05/07 01:12:13;;;;;;;13.80;8.93;;;24.30;54.50;;;;;;6285846;27;85095;-61
2022/05/07 01:15:14;;;;;;;15.88;10.32;;;24.30;54.50;;;;;;6286114;27;80411;-60
2022/05/07 01:18:17;;;;;;;16.42;10.68;;;24.30;54.50;;;;;;6281073;27;83390;-60
2022/05/07 01:21:17;;;;;;;16.02;10.18;;;24.30;54.50;;;;;;6281075;27;85901;-60
2022/05/07 01:24:21;;;;;;;14.02;9.18;;;24.30;54.50;;;;;;6281350;27;83205;-61
2022/05/07 01:27:21;;;;;;;12.88;9.13;;;24.30;54.50;;;;;;6284170;27;84125;-61
2022/05/07 01:30:22;;;;;;;13.95;9.27;;;24.30;54.50;;;;;;6283947;27;82288;-61
2022/05/07 01:33:22;;;;;;;15.52;9.65;;;24.30;54.50;;;;;;6274211;27;80639;-61
2022/05/07 01:36:23;;;;;;;15.32;9.60;;;24.30;54.50;;;;;;6284205;27;83092;-60
2022/05/07 01:39:30;;;;;;;13.00;8.70;;;24.30;54.50;;;;;;6284066;27;81682;-61
2022/05/07 01:42:31;;;;;;;14.35;9.93;;;24.30;54.50;;;;;;6283970;27;83108;-61
2022/05/07 01:45:32;;;;;;;12.02;8.57;;;24.30;54.50;;;;;;6280254;27;82188;-61
2022/05/07 01:48:35;;;;;;;15.45;9.75;;;24.30;54.50;;;;;;6275800;27;83280;-61
2022/05/07 01:51:35;;;;;;;16.83;10.02;;;24.30;54.60;;;;;;6285219;27;81912;-61
2022/05/07 01:54:36;;;;;;;15.60;9.98;;;24.30;54.60;;;;;;6280553;27;83243;-61
2022/05/07 01:57:37;;;;;;;13.55;9.00;;;24.30;54.50;;;;;;6280135;27;85807;-61
2022/05/07 02:00:40;;;;;;;15.13;9.82;;;24.30;54.60;;;;;;6283273;27;86100;-61
2022/05/07 02:03:41;;;;;;;12.32;8.23;;;24.30;54.60;;;;;;6283457;27;81565;-61
2022/05/07 02:06:42;;;;;;;13.45;8.75;;;24.30;54.60;;;;;;6283452;27;82580;-60
2022/05/07 02:09:45;;;;;;;14.82;9.65;;;24.30;54.50;;;;;;6282340;27;82266;-60
2022/05/07 02:12:46;;;;;;;13.85;9.07;;;24.30;54.50;;;;;;6282681;27;83411;-60
2022/05/07 02:15:47;;;;;;;17.02;9.20;;;24.30;54.50;;;;;;6281775;27;83237;-60
2022/05/07 02:18:48;;;;;;;14.70;8.95;;;24.30;54.50;;;;;;6283003;27;82840;-61
2022/05/07 02:21:48;;;;;;;13.82;9.30;;;24.30;54.50;;;;;;6284615;27;80380;-61
2022/05/07 02:24:50;;;;;;;12.95;8.93;;;24.20;54.60;;;;;;6283170;27;83447;-61
2022/05/07 02:27:57;;;;;;;16.45;10.25;;;24.30;54.50;;;;;;6283221;27;83589;-61
2022/05/07 02:30:58;;;;;;;12.70;8.30;;;24.30;54.50;;;;;;6279592;27;82997;-60
2022/05/07 02:33:59;;;;;;;14.18;9.48;;;24.20;54.40;;;;;;6282745;27;83491;-60
2022/05/07 02:37:00;;;;;;;16.30;10.20;;;24.30;54.40;;;;;;6283999;27;81680;-60
2022/05/07 02:40:01;;;;;;;13.57;9.27;;;24.30;54.40;;;;;;6279565;27;84416;-60
2022/05/07 02:43:02;;;;;;;14.57;9.27;;;24.30;54.40;;;;;;6268714;27;86078;-60
2022/05/07 02:46:02;;;;;;;16.23;8.88;;;24.30;54.30;;;;;;6283408;27;80373;-60
2022/05/07 02:49:04;;;;;;;17.88;10.52;;;24.30;54.40;;;;;;6283016;27;81345;-60
2022/05/07 02:52:05;;;;;;;14.07;9.02;;;24.20;54.30;;;;;;6280876;27;82958;-60
2022/05/07 02:55:05;;;;;;;12.15;9.20;;;24.30;54.30;;;;;;6282661;27;86120;-60
2022/05/07 02:58:07;;;;;;;12.48;8.85;;;24.20;54.30;;;;;;6279131;27;83681;-60
2022/05/07 03:01:08;;;;;;;14.95;9.85;;;24.30;54.40;;;;;;6281608;27;82934;-60
2022/05/07 03:04:09;;;;;;;17.25;10.23;;;24.20;54.30;;;;;;6284221;27;80209;-60
2022/05/07 03:07:10;;;;;;;15.98;9.55;;;24.30;54.40;;;;;;6280561;27;83219;-60
2022/05/07 03:10:12;;;;;;;12.90;9.23;;;24.30;54.30;;;;;;6279482;27;86220;-60
2022/05/07 03:13:14;;;;;;;13.95;9.70;;;24.20;54.40;;;;;;6283995;27;80795;-61
2022/05/07 03:16:15;;;;;;;13.38;8.40;;;24.30;54.40;;;;;;6282611;27;83434;-61
2022/05/07 03:19:17;;;;;;;13.07;8.68;;;24.20;54.40;;;;;;6282790;27;83048;-61
2022/05/07 03:22:17;;;;;;;14.15;9.35;;;24.30;54.50;;;;;;6282520;27;82731;-61
2022/05/07 03:25:18;;;;;;;14.60;10.00;;;24.30;54.40;;;;;;6255583;27;83601;-61
2022/05/07 03:28:20;;;;;;;15.20;10.27;;;24.30;54.50;;;;;;6262585;27;83465;-60
2022/05/07 03:31:22;;;;;;;13.13;9.77;;;24.30;54.40;;;;;;6279359;27;85165;-61
2022/05/07 03:34:23;;;;;;;14.70;10.15;;;24.30;54.40;;;;;;6279030;27;85844;-61
2022/05/07 03:37:24;;;;;;;14.65;9.88;;;24.30;54.50;;;;;;6278941;27;83611;-61
2022/05/07 03:40:25;;;;;;;17.33;10.45;;;24.20;54.40;;;;;;6275490;27;85810;-61
2022/05/07 03:43:26;;;;;;;20.13;9.30;;;24.30;54.30;;;;;;6276369;27;83597;-61
2022/05/07 03:46:27;;;;;;;13.98;9.43;;;24.20;54.30;;;;;;6282034;27;85837;-61
2022/05/07 03:49:32;;;;;;;14.73;9.60;;;24.30;54.50;;;;;;6283674;27;81348;-60
2022/05/07 03:56:13;;;;;;;13.13;8.95;;;24.20;54.50;;;;;;6262071;27;86124;-61
2022/05/07 03:59:14;;;;;;;13.48;9.73;;;24.30;54.60;;;;;;6277894;27;80244;-62
2022/05/07 04:02:20;;;;;;;12.00;8.40;;;24.30;54.60;;;;;;6281049;27;83251;-61
2022/05/07 04:05:25;;;;;;;11.50;8.05;;;24.20;54.60;;;;;;6282181;27;80533;-61
2022/05/07 04:08:29;;;;;;;13.05;8.90;;;24.20;54.70;;;;;;6272450;27;82731;-61
2022/05/07 04:11:32;;;;;;;12.38;8.93;;;24.20;54.80;;;;;;6257502;27;83077;-63
2022/05/07 04:14:35;;;;;;;12.77;8.52;;;24.20;54.80;;;;;;6272734;27;83566;-65
2022/05/07 04:17:38;;;;;;;13.65;8.50;;;24.30;54.80;;;;;;6278974;27;82439;-61
2022/05/07 04:20:40;;;;;;;16.55;8.85;;;24.30;54.90;;;;;;6271285;27;83146;-60
2022/05/07 04:23:44;;;;;;;12.30;9.15;;;24.30;55.30;;;;;;6271844;27;83356;-60
2022/05/07 04:26:46;;;;;;;13.38;8.85;;;24.30;55.40;;;;;;6279624;27;81490;-61
2022/05/07 04:29:46;;;;;;;21.55;9.68;;;24.30;55.30;;;;;;6273282;27;81617;-66
2022/05/07 04:32:52;;;;;;;14.13;9.97;;;24.30;55.30;;;;;;6265860;27;83181;-63
2022/05/07 04:35:53;;;;;;;17.42;9.60;;;24.30;55.10;;;;;;6283016;27;82859;-61
2022/05/07 04:38:56;;;;;;;18.42;10.38;;;24.30;54.90;;;;;;6267931;27;86324;-60
2022/05/07 04:42:02;;;;;;;14.00;9.35;;;24.30;55.30;;;;;;6281730;27;83271;-61
2022/05/07 04:45:23;;;;;;;16.17;10.88;;;24.40;55.30;;;;;;6262686;27;85693;-60
2022/05/07 04:48:33;;;;;;;15.20;10.10;;;24.40;55.50;;;;;;6281485;27;83039;-59
2022/05/07 04:51:34;;;;;;;16.50;9.65;;;24.40;55.50;;;;;;6273206;27;85867;-60
2022/05/07 04:54:41;;;;;;;16.77;10.73;;;24.50;55.20;;;;;;6281287;27;85550;-61
2022/05/07 04:57:42;;;;;;;15.93;10.32;;;24.40;55.40;;;;;;6266718;27;84469;-61
2022/05/07 05:00:43;;;;;;;15.65;10.27;;;24.40;56.00;;;;;;6270077;27;86354;-62
2022/05/07 05:03:47;;;;;;;17.05;10.07;;;24.40;55.70;;;;;;6279223;27;84888;-61
2022/05/07 05:06:57;;;;;;;19.92;10.82;;;24.40;55.80;;;;;;6280055;27;85803;-61
2022/05/07 05:10:03;;;;;;;16.33;9.68;;;24.40;55.60;;;;;;6278599;27;84657;-62
2022/05/07 05:13:14;;;;;;;16.05;8.60;;;24.50;55.60;;;;;;6270733;27;86663;-61
2022/05/07 05:16:20;;;;;;;13.25;8.45;;;24.50;56.20;;;;;;6286232;27;80441;-63
2022/05/07 05:19:24;;;;;;;15.25;7.93;;;24.50;56.00;;;;;;6284172;27;82808;-62
2022/05/07 05:22:25;;;;;;;12.35;7.95;;;24.50;56.10;;;;;;6284081;27;81173;-62
2022/05/07 05:25:26;;;;;;;12.65;8.15;;;24.50;56.40;;;;;;6284358;27;82605;-62
2022/05/07 05:28:26;;;;;;;12.10;7.25;;;24.60;56.60;;;;;;6285896;27;80380;-61
2022/05/07 05:31:32;;;;;;;;;;;24.60;56.50;;;;;;6284991;27;83203;-61
2022/05/07 05:34:39;;;;;;;10.60;7.10;;;24.60;56.30;;;;;;6290925;27;83011;-63
2022/05/07 05:37:40;;;;;;;17.75;7.28;;;24.60;56.00;;;;;;6285981;27;80638;-61
2022/05/07 05:40:41;;;;;;;11.32;6.40;;;24.60;55.80;;;;;;6274623;27;83423;-61
2022/05/07 05:43:44;;;;;;;9.35;6.85;;;24.60;55.90;;;;;;6262240;27;81645;-64
2022/05/07 05:46:45;;;;;;;10.07;6.57;;;24.60;55.70;;;;;;6264560;27;82342;-62
2022/05/07 05:49:46;;;;;;;7.90;5.60;;;24.70;55.60;;;;;;6275380;27;82168;-62
2022/05/07 05:52:47;;;;;;;13.85;6.68;;;24.60;55.50;;;;;;6280082;27;80568;-61
2022/05/07 05:55:48;;;;;;;14.85;6.72;;;24.60;55.50;;;;;;6264274;27;80273;-63
2022/05/07 05:58:55;;;;;;;8.93;5.72;;;24.60;55.50;;;;;;6283556;27;87477;-63
2022/05/07 06:02:01;;;;;;;12.55;6.40;;;24.70;55.40;;;;;;6283906;27;83764;-63
2022/05/07 06:05:08;;;;;;;11.30;5.60;;;24.70;55.30;;;;;;6283735;27;82192;-61
2022/05/07 06:08:14;;;;;;;10.05;5.82;;;24.70;55.50;;;;;;6283904;27;83780;-62
2022/05/07 06:11:15;;;;;;;9.93;5.68;;;24.70;55.20;;;;;;6271668;27;80505;-61
2022/05/07 06:14:16;;;;;;;8.55;5.63;;;24.70;54.70;;;;;;6276413;27;81947;-62
2022/05/07 06:17:16;;;;;;;17.27;7.45;;;24.70;54.80;;;;;;6276525;27;80707;-61
2022/05/07 06:20:21;;;;;;;14.75;5.97;;;24.70;54.50;;;;;;6283912;27;83013;-64
2022/05/07 06:23:25;;;;;;;16.25;6.82;;;24.70;54.40;;;;;;6283702;27;83196;-64
2022/05/07 06:29:47;;;;;;;21.38;6.50;;;24.80;54.20;;;;;;6271718;27;83442;-65
2022/05/07 06:32:48;;;;;;;14.45;6.72;;;24.70;54.20;;;;;;6266543;27;82919;-64
2022/05/07 06:35:49;;;;;;;12.98;7.22;;;24.70;54.00;;;;;;6269696;27;83383;-62
2022/05/07 06:38:54;;;;;;;12.05;6.97;;;24.80;53.60;;;;;;6262738;27;83297;-62
2022/05/07 06:41:56;;;;;;;15.20;6.47;;;24.70;53.80;;;;;;6268211;27;82326;-63
2022/05/07 06:44:56;;;;;;;10.50;6.38;;;24.70;54.10;;;;;;6266877;27;82727;-63
2022/05/07 06:47:57;;;;;;;13.70;6.97;;;24.70;54.10;;;;;;6260317;27;83014;-62
2022/05/07 06:50:58;;;;;;;13.82;7.47;;;24.70;54.40;;;;;;6263650;27;82023;-63
2022/05/07 06:54:00;;;;;;;11.85;7.15;;;24.70;54.10;;;;;;6260422;27;82610;-63
2022/05/07 06:57:01;;;;;;;15.43;7.65;;;24.70;54.20;;;;;;6269079;27;80600;-63
2022/05/07 07:00:02;;;;;;;31.85;7.25;;;24.70;54.10;;;;;;6277283;27;80463;-63
2022/05/07 07:03:02;;;;;;;11.75;6.68;;;24.80;54.10;;;;;;6266344;27;81010;-63
2022/05/07 07:06:03;;;;;;;12.30;6.38;;;24.80;54.10;;;;;;6265552;27;81081;-63
2022/05/07 07:09:07;;;;;;;17.52;7.90;;;24.80;54.20;;;;;;6261068;27;80503;-63
2022/05/07 07:12:09;;;;;;;15.68;6.78;;;24.80;54.00;;;;;;6261503;27;80706;-64
2022/05/07 07:15:10;;;;;;;8.98;5.32;;;24.90;53.90;;;;;;6264550;27;81479;-63
2022/05/07 07:18:11;;;;;;;13.48;6.93;;;24.90;54.00;;;;;;6259634;27;81007;-62
2022/05/07 07:21:12;;;;;;;15.77;7.28;;;24.90;53.60;;;;;;6283892;27;80681;-64
2022/05/07 07:24:13;;;;;;;14.05;6.70;;;25.00;53.30;;;;;;6275537;27;81078;-62
2022/05/07 07:27:13;;;;;;;17.58;6.43;;;25.00;53.00;;;;;;6279416;27;80345;-64
2022/05/07 07:30:14;;;;;;;37.40;7.22;;;25.00;52.90;;;;;;6283366;27;80841;-63
2022/05/07 07:33:14;;;;;;;8.02;5.63;;;25.00;52.90;;;;;;6282748;27;80382;-64
2022/05/07 07:36:17;;;;;;;17.95;6.07;;;25.00;52.50;;;;;;6282925;27;81492;-63
2022/05/07 07:39:17;;;;;;;8.93;5.90;;;24.90;52.30;;;;;;6276566;27;80318;-64
2022/05/07 07:42:20;;;;;;;11.02;5.88;;;24.90;52.10;;;;;;6268711;27;80608;-64
2022/05/07 07:48:40;;;;;;;9.93;5.68;;;24.90;51.70;;;;;;6277786;27;80572;-65
2022/05/07 07:51:41;;;;;;;12.75;5.88;;;24.90;51.50;;;;;;6281489;27;80639;-77
2022/05/07 07:54:41;;;;;;;10.35;5.50;;;24.90;51.40;;;;;;6280270;27;81900;-64
2022/05/07 07:57:42;;;;;;;17.15;6.43;;;24.90;51.50;;;;;;6273888;27;81051;-63
2022/05/07 08:00:44;;;;;;;11.93;6.43;;;24.90;51.40;;;;;;6261482;27;80167;-63
2022/05/07 08:03:44;;;;;;;15.35;5.13;;;24.90;51.10;;;;;;6273281;27;80328;-63
2022/05/07 08:11:39;;;;;;;11.73;5.93;;;24.90;50.90;;;;;;6278338;27;80392;-63
2022/05/07 08:13:24;;;;;;;17.88;7.18;;;24.80;50.50;;;;;;6282509;27;80348;-64
2022/05/07 08:16:25;;;;;;;14.38;6.70;;;24.80;50.80;;;;;;6281832;27;80194;-64
2022/05/07 08:19:27;;;;;;;14.27;6.78;;;24.80;50.30;;;;;;6282585;27;81727;-62
2022/05/07 08:22:28;;;;;;;20.50;7.05;;;24.80;50.40;;;;;;6272568;27;80606;-64
2022/05/07 08:25:29;;;;;;;14.77;6.65;;;24.80;49.70;;;;;;6274151;27;81133;-63
2022/05/07 08:28:29;;;;;;;13.77;7.07;;;24.80;49.90;;;;;;6283547;27;80934;-64
2022/05/07 08:31:30;;;;;;;16.02;6.88;;;24.80;49.60;;;;;;6268378;27;81419;-64
2022/05/07 08:34:31;;;;;;;14.50;7.50;;;24.80;49.20;;;;;;6282860;27;81509;-64
2022/05/07 08:37:33;;;;;;;18.00;7.80;;;24.70;49.50;;;;;;6271538;27;80487;-63
2022/05/07 08:40:33;;;;;;;10.15;6.60;;;24.70;49.40;;;;;;6282975;27;81086;-65
2022/05/07 08:43:36;;;;;;;14.00;7.50;;;24.70;49.60;;;;;;6279890;27;80471;-65
2022/05/07 08:46:38;;;;;;;17.65;8.13;;;24.70;49.20;;;;;;6283095;27;80721;-65
2022/05/07 08:49:39;;;;;;;22.85;9.27;;;24.80;49.50;;;;;;6283114;27;80345;-65
2022/05/07 08:52:39;;;;;;;17.52;8.57;;;24.80;49.00;;;;;;6267888;27;80612;-65
2022/05/07 08:55:40;;;;;;;21.35;8.48;;;24.80;48.90;;;;;;6280995;27;81998;-65
2022/05/07 08:58:41;;;;;;;24.08;9.00;;;24.80;49.20;;;;;;6280188;27;81992;-65
2022/05/07 09:01:43;;;;;;;22.98;8.88;;;24.80;49.10;;;;;;6287173;27;80909;-65
2022/05/07 09:04:44;;;;;;;25.17;9.52;;;24.80;49.00;;;;;;6275366;27;80697;-65
2022/05/07 09:07:44;;;;;;;23.17;8.88;;;24.80;48.70;;;;;;6281426;27;80831;-65
2022/05/07 09:10:45;;;;;;;18.55;9.73;;;24.80;49.00;;;;;;6286586;27;80608;-65
2022/05/07 09:13:46;;;;;;;19.30;8.98;;;24.80;48.80;;;;;;6286886;27;80073;-65
2022/05/07 09:16:48;;;;;;;23.38;9.38;;;24.80;48.70;;;;;;6277105;27;80725;-67
2022/05/07 09:19:49;;;;;;;23.25;8.60;;;24.80;48.70;;;;;;6270740;27;80574;-65
2022/05/07 09:22:50;;;;;;;22.38;9.38;;;24.80;48.60;;;;;;6265245;27;80725;-65
2022/05/07 09:25:50;;;;;;;20.40;9.63;;;24.80;48.30;;;;;;6277915;27;80691;-65
2022/05/07 09:28:51;;;;;;;20.50;8.75;;;24.90;48.20;;;;;;6261560;27;80747;-66
2022/05/07 09:31:51;;;;;;;26.42;8.77;;;24.90;48.10;;;;;;6270150;27;80541;-65
2022/05/07 09:38:11;;;;;;;20.75;8.38;;;24.90;47.60;;;;;;6285566;27;84781;-65
2022/05/07 09:41:12;;;;;;;14.45;8.30;;;24.90;47.60;;;;;;6286237;27;80092;-68
2022/05/07 09:44:12;;;;;;;25.75;8.48;;;24.90;47.40;;;;;;6263665;27;80609;-65
2022/05/07 09:47:13;;;;;;;20.20;8.63;;;24.90;47.50;;;;;;6262053;27;80692;-67
2022/05/07 09:50:20;;;;;;;23.77;8.23;;;24.90;47.40;;;;;;6265386;27;80737;-65
2022/05/07 09:59:59;;;;;;;17.88;7.20;;;25.10;47.10;;;;;;6286075;27;80778;-64
2022/05/07 10:03:00;;;;;;;17.73;6.43;;;25.10;47.20;;;;;;6286430;27;80455;-65
2022/05/07 10:06:00;;;;;;;14.77;6.60;;;25.10;46.60;;;;;;6285428;27;80689;-64
2022/05/07 10:09:01;;;;;;;12.07;6.20;;;25.10;46.40;;;;;;6280773;27;81476;-63
2022/05/07 10:12:01;;;;;;;16.23;6.20;;;25.10;46.20;;;;;;6282029;27;80585;-64
2022/05/07 10:15:02;;;;;;;12.35;5.63;;;25.10;45.30;;;;;;6285391;27;80216;-64
2022/05/07 10:18:02;;;;;;;14.65;6.22;;;25.10;45.40;;;;;;6285013;27;80581;-62
2022/05/07 10:21:03;;;;;;;10.85;5.65;;;25.10;45.30;;;;;;6283427;27;80320;-63
2022/05/07 10:24:05;;;;;;;15.65;5.70;;;25.10;45.40;;;;;;6285633;27;80792;-63
2022/05/07 10:27:06;;;;;;;12.43;5.47;;;25.10;44.90;;;;;;6283997;27;81268;-64
2022/05/07 10:30:06;;;;;;;12.32;5.45;;;25.20;45.00;;;;;;6285104;27;80494;-64
2022/05/07 10:33:07;;;;;;;11.15;5.10;;;25.20;44.90;;;;;;6285327;27;80267;-63
2022/05/07 10:36:07;;;;;;;11.80;5.55;;;25.20;44.70;;;;;;6285426;27;80975;-64
2022/05/07 10:39:08;;;;;;;12.30;5.80;;;25.30;44.70;;;;;;6281668;27;81591;-64
2022/05/07 10:42:10;;;;;;;18.85;5.72;;;25.30;45.50;;;;;;6275256;27;80696;-63
2022/05/07 10:45:10;;;;;;;11.00;5.85;;;25.30;45.80;;;;;;6285098;27;80939;-65
2022/05/07 10:48:11;;;;;;;20.48;7.22;;;25.20;46.80;;;;;;6284907;27;80367;-64
2022/05/07 10:51:11;;;;;;;15.30;5.72;;;25.20;46.40;;;;;;6284686;27;80471;-63
2022/05/07 10:54:12;;;;;;;21.30;7.40;;;25.30;45.80;;;;;;6284468;27;80585;-63
2022/05/07 10:57:12;;;;;;;50.10;13.90;;;25.30;47.50;;;;;;6284574;27;80578;-62
2022/05/07 11:00:13;;;;;;;44.20;13.50;;;25.30;44.50;;;;;;6279939;27;83028;-64
2022/05/07 11:03:17;;;;;;;41.67;13.85;;;25.30;43.40;;;;;;6279276;27;82686;-63
2022/05/07 11:06:17;;;;;;;48.88;13.00;;;25.30;43.10;;;;;;6268672;27;82830;-66
2022/05/07 11:09:18;;;;;;;47.58;12.55;;;25.30;43.30;;;;;;6280916;27;82962;-62
2022/05/07 11:12:22;;;;;;;49.55;16.15;;;25.30;43.70;;;;;;6280961;27;83371;-62
2022/05/07 11:15:23;;;;;;;63.30;17.33;;;25.40;44.20;;;;;;6257324;27;83081;-63
2022/05/07 11:18:24;;;;;;;58.60;16.90;;;25.50;44.60;;;;;;6262993;27;83839;-62
2022/05/07 11:21:24;;;;;;;57.53;16.95;;;25.40;44.70;;;;;;6257956;27;84444;-63
2022/05/07 11:24:26;;;;;;;53.35;13.55;;;25.50;43.50;;;;;;6255679;27;83074;-66
2022/05/07 11:27:29;;;;;;;45.13;14.52;;;25.50;43.70;;;;;;6265254;27;83904;-64
2022/05/07 11:30:30;;;;;;;30.13;10.27;;;25.50;44.00;;;;;;6261672;27;83105;-64
2022/05/07 11:33:30;;;;;;;27.95;9.98;;;25.50;43.00;;;;;;6256385;27;83465;-63
2022/05/07 11:36:32;;;;;;;18.98;8.90;;;25.50;43.20;;;;;;6272521;27;84134;-63
2022/05/07 11:39:32;;;;;;;21.27;7.45;;;25.50;43.20;;;;;;6279044;27;82852;-62
2022/05/07 11:42:33;;;;;;;22.63;6.78;;;25.50;42.00;;;;;;6264512;27;80312;-63
2022/05/07 11:45:37;;;;;;;13.88;4.93;;;25.40;41.40;;;;;;6276509;27;81835;-63
2022/05/07 11:48:37;;;;;;;11.75;5.45;;;25.40;40.80;;;;;;6268878;27;80729;-63
2022/05/07 11:51:38;;;;;;;10.57;5.35;;;25.40;41.00;;;;;;6270790;27;80612;-64
2022/05/07 11:54:39;;;;;;;17.55;5.00;;;25.40;41.00;;;;;;6271072;27;80305;-65
2022/05/07 11:57:44;;;;;;;13.57;5.80;;;25.30;41.40;;;;;;6275728;27;80562;-64
2022/05/07 12:00:44;;;;;;;16.27;5.70;;;25.40;41.70;;;;;;6271338;27;81453;-64
2022/05/07 12:03:45;;;;;;;6.88;3.47;;;25.40;42.20;;;;;;6276239;27;80495;-64
2022/05/07 12:06:45;;;;;;;7.65;4.38;;;25.40;42.40;;;;;;6273172;27;81970;-64
2022/05/07 12:09:46;;;;;;;11.15;4.65;;;25.30;39.50;;;;;;6283033;27;80435;-64
2022/05/07 12:12:47;;;;;;;11.00;3.33;;;25.30;40.30;;;;;;6282382;27;80559;-63
2022/05/07 12:19:08;;;;;;;8.05;3.45;;;25.30;41.10;;;;;;6260984;27;80813;-64
2022/05/07 12:32:08;;;;;;;9.60;4.28;;;25.30;40.30;;;;;;6271738;27;85337;-65
2022/05/07 12:35:09;;;;;;;13.93;4.40;;;25.30;40.20;;;;;;6256026;27;80563;-65
2022/05/07 12:38:10;;;;;;;10.52;4.10;;;25.30;41.30;;;;;;6266098;27;83223;-65
2022/05/07 12:41:11;;;;;;;10.77;4.55;;;25.30;41.90;;;;;;6266280;27;80433;-65
2022/05/07 12:44:11;;;;;;;9.63;3.42;;;25.30;41.40;;;;;;6278322;27;80467;-66
2022/05/07 12:47:12;;;;;;;9.45;5.03;;;25.30;41.90;;;;;;6266336;27;80129;-65
2022/05/07 12:50:12;;;;;;;9.50;4.30;;;25.20;39.60;;;;;;6269130;27;81380;-66
2022/05/07 12:53:14;;;;;;;7.72;4.03;;;25.20;40.00;;;;;;6267724;27;80850;-65
2022/05/07 12:56:14;;;;;;;10.60;4.18;;;25.20;40.00;;;;;;6269151;27;80839;-65
2022/05/07 12:59:15;;;;;;;8.02;3.55;;;25.10;39.40;;;;;;6265444;27;80718;-66
2022/05/07 13:02:16;;;;;;;7.18;3.72;;;25.10;39.80;;;;;;6284834;27;82576;-65
2022/05/07 13:05:16;;;;;;;9.32;4.38;;;25.10;39.70;;;;;;6286757;27;80521;-67
2022/05/07 13:08:17;;;;;;;6.93;3.72;;;25.10;40.50;;;;;;6286878;27;81527;-63
2022/05/07 13:11:17;;;;;;;11.02;4.15;;;25.20;40.50;;;;;;6284616;27;81704;-64
2022/05/07 13:14:18;;;;;;;7.05;3.83;;;25.10;39.40;;;;;;6286469;27;80704;-65
2022/05/07 13:17:18;;;;;;;22.75;4.40;;;25.10;40.00;;;;;;6273655;27;80029;-64
2022/05/07 13:20:20;;;;;;;7.38;3.55;;;25.10;40.20;;;;;;6265881;27;80152;-64
2022/05/07 13:23:21;;;;;;;5.30;3.30;;;25.10;40.20;;;;;;6263789;27;81362;-65
2022/05/07 13:26:21;;;;;;;4.53;3.00;;;25.10;40.30;;;;;;6263387;27;80349;-65
2022/05/07 13:29:21;;;;;;;4.97;3.42;;;25.10;40.40;;;;;;6263310;27;80721;-65
2022/05/07 13:32:23;;;;;;;9.13;3.58;;;25.10;40.20;;;;;;6264696;27;80320;-65
2022/05/07 13:35:24;;;;;;;6.90;3.95;;;25.10;40.20;;;;;;6263974;27;81657;-65
2022/05/07 13:38:25;;;;;;;6.43;3.17;;;25.10;40.80;;;;;;6262964;27;81382;-64
2022/05/07 13:41:28;;;;;;;6.03;3.45;;;25.10;40.90;;;;;;6266057;27;80874;-64
2022/05/07 13:44:29;;;;;;;10.07;4.28;;;25.00;40.30;;;;;;6271933;27;80530;-64
2022/05/07 13:47:29;;;;;;;9.02;4.25;;;25.00;40.30;;;;;;6279145;27;80845;-66
2022/05/07 13:50:30;;;;;;;7.65;3.63;;;25.00;40.20;;;;;;6264797;27;84017;-65
2022/05/07 13:53:30;;;;;;;6.10;3.90;;;25.00;40.20;;;;;;6267558;27;81137;-65
2022/05/07 13:56:31;;;;;;;10.35;3.70;;;25.00;40.30;;;;;;6268951;27;80381;-65
2022/05/07 13:59:32;;;;;;;9.27;3.88;;;25.00;40.10;;;;;;6266740;27;80903;-66
2022/05/07 14:02:36;;;;;;;13.27;3.70;;;25.00;40.30;;;;;;6268774;27;80332;-66
2022/05/07 14:05:36;;;;;;;6.22;3.22;;;25.00;40.30;;;;;;6270044;27;80253;-65
2022/05/07 14:08:37;;;;;;;6.55;3.70;;;25.00;40.60;;;;;;6268773;27;80325;-65
2022/05/07 14:11:37;;;;;;;9.85;4.07;;;25.00;40.40;;;;;;6274550;27;80583;-66
2022/05/07 14:14:38;;;;;;;6.93;3.65;;;25.00;40.40;;;;;;6275159;27;80314;-65
2022/05/07 14:17:39;;;;;;;8.35;3.75;;;25.00;40.40;;;;;;6268252;27;80896;-64
2022/05/07 14:20:39;;;;;;;5.50;3.58;;;24.90;40.40;;;;;;6268924;27;80548;-65
2022/05/07 14:23:40;;;;;;;6.95;3.53;;;25.00;40.60;;;;;;6262582;27;80423;-64
2022/05/07 14:26:41;;;;;;;6.57;3.67;;;25.00;40.80;;;;;;6264224;27;81585;-65
2022/05/07 14:29:41;;;;;;;7.85;4.13;;;25.00;40.90;;;;;;6270044;27;81712;-65
2022/05/07 14:32:42;;;;;;;7.40;4.03;;;25.00;40.50;;;;;;6284892;27;80078;-65
2022/05/07 14:35:44;;;;;;;8.25;4.72;;;24.90;40.50;;;;;;6284480;27;80336;-64
2022/05/07 14:38:45;;;;;;;7.05;4.07;;;24.90;40.50;;;;;;6284304;27;80308;-65
2022/05/07 14:41:46;;;;;;;9.80;4.78;;;24.90;40.80;;;;;;6284907;27;80528;-64
2022/05/07 14:44:46;;;;;;;11.38;5.00;;;24.90;41.10;;;;;;6284539;27;81265;-68
2022/05/07 14:47:47;;;;;;;4.68;3.28;;;24.90;41.20;;;;;;6284819;27;80324;-69
2022/05/07 14:50:47;;;;;;;7.60;4.72;;;24.90;41.30;;;;;;6284582;27;80800;-67
2022/05/07 14:53:48;;;;;;;12.18;4.57;;;24.90;41.40;;;;;;6283756;27;80802;-66
2022/05/07 14:56:49;;;;;;;10.45;4.38;;;24.90;42.40;;;;;;6282298;27;80890;-65
2022/05/07 14:59:49;;;;;;;13.60;5.28;;;24.90;42.60;;;;;;6279393;27;80518;-65
2022/05/07 15:02:51;;;;;;;7.90;4.03;;;24.90;42.70;;;;;;6272468;27;82020;-65
2022/05/07 15:05:54;;;;;;;6.45;3.85;;;24.90;42.80;;;;;;6286235;27;80289;-66
2022/05/07 15:12:15;;;;;;;9.00;3.70;;;25.00;43.00;;;;;;6285252;27;81300;-66
2022/05/07 15:15:16;;;;;;;11.40;4.82;;;25.00;42.60;;;;;;6285335;27;80631;-66
2022/05/07 15:18:16;;;;;;;7.03;3.85;;;25.00;42.80;;;;;;6285253;27;80522;-65
2022/05/07 15:21:18;;;;;;;8.07;4.32;;;25.00;43.00;;;;;;6278238;27;80286;-64
2022/05/07 15:24:18;;;;;;;7.78;4.68;;;25.00;43.30;;;;;;6284308;27;80360;-66
2022/05/07 15:27:19;;;;;;;6.50;4.57;;;25.00;42.90;;;;;;6284139;27;80580;-66
2022/05/07 15:30:19;;;;;;;7.93;4.35;;;25.00;43.00;;;;;;6283955;27;80464;-65
2022/05/07 15:39:42;;;;;;;7.50;4.55;;;24.90;43.50;;;;;;6283741;27;80664;-66
2022/05/07 15:42:43;;;;;;;12.18;5.15;;;24.80;43.10;;;;;;6280725;27;81744;-65
2022/05/07 15:45:43;;;;;;;7.78;4.57;;;24.40;43.10;;;;;;6282358;27;81365;-65
2022/05/07 15:48:44;;;;;;;10.20;4.18;;;24.50;43.50;;;;;;6283340;27;81708;-65
2022/05/07 15:51:47;;;;;;;9.40;4.63;;;24.60;43.60;;;;;;6283230;27;80403;-65
2022/05/07 15:54:48;;;;;;;13.88;4.72;;;24.70;43.50;;;;;;6282517;27;81455;-67
2022/05/07 15:57:48;;;;;;;9.88;4.75;;;24.70;43.60;;;;;;6282772;27;81500;-66
2022/05/07 16:00:49;;;;;;;11.30;4.85;;;24.70;43.30;;;;;;6258831;27;80616;-67
2022/05/07 16:03:49;;;;;;;10.38;5.10;;;24.70;43.00;;;;;;6283518;27;80399;-67
2022/05/07 16:06:50;;;;;;;11.40;5.20;;;24.60;43.00;;;;;;6267660;27;80513;-67
2022/05/07 16:09:50;;;;;;;11.25;4.93;;;24.60;43.10;;;;;;6273685;27;81544;-68
2022/05/07 16:12:51;;;;;;;8.98;4.80;;;24.50;43.40;;;;;;6274031;27;80823;-68
2022/05/07 16:15:54;;;;;;;11.73;4.22;;;24.60;43.70;;;;;;6270699;27;80491;-69
2022/05/07 16:18:55;;;;;;;8.32;5.07;;;24.60;43.60;;;;;;6269773;27;80189;-68
2022/05/07 16:21:55;;;;;;;14.70;5.13;;;24.60;43.70;;;;;;6272588;27;80637;-69
2022/05/07 16:25:00;;;;;;;8.38;4.95;;;24.70;43.90;;;;;;6273019;27;81122;-67